Time;durP1;ratioP1;P1;durP2;ratioP2;P2;SDS_P1;SDS_P2;PMS_P1;PMS_P2;Temp;Humidity;BMP_temperature;BMP_pressure;BME280_temperature;BME280_humidity;BME280_pressure;Samples;Min_cycle;Max_cycle;Signal;HPM_P1;HPM_P2
2023/07/23 00:01:20;;;;;;;6.00;2.80;;;;;;;;;;7384083;19;20010;-71
2023/07/23 00:03:45;;;;;;;7.53;3.15;;;;;;;;;;7371045;19;20035;-72
2023/07/23 00:06:10;;;;;;;11.38;3.35;;;;;;;;;;7371400;19;20006;-72
2023/07/23 00:08:36;;;;;;;6.68;3.33;;;;;;;;;;7368199;19;20015;-71
2023/07/23 00:11:01;;;;;;;9.45;3.55;;;;;;;;;;7370220;19;20078;-71
2023/07/23 00:13:26;;;;;;;6.57;3.45;;;;;;;;;;7391720;19;20461;-72
2023/07/23 00:15:52;;;;;;;6.25;3.28;;;;;;;;;;7371546;19;20081;-71
2023/07/23 00:18:17;;;;;;;8.07;3.75;;;;;;;;;;7368825;19;20036;-72
2023/07/23 00:20:42;;;;;;;5.93;3.40;;;;;;;;;;7368673;19;20512;-72
2023/07/23 00:23:07;;;;;;;6.65;3.28;;;;;;;;;;7370351;19;20021;-71
2023/07/23 00:25:36;;;;;;;7.80;3.08;;;;;;;;;;7392102;19;20006;-72
2023/07/23 00:28:01;;;;;;;7.00;2.90;;;;;;;;;;7366164;19;20017;-72
2023/07/23 00:30:26;;;;;;;7.38;3.05;;;;;;;;;;7367179;19;20074;-72
2023/07/23 00:32:52;;;;;;;6.38;3.35;;;;;;;;;;7368407;19;20020;-71
2023/07/23 00:35:19;;;;;;;6.57;3.53;;;;;;;;;;7367539;19;20031;-71
2023/07/23 00:37:44;;;;;;;11.40;3.65;;;;;;;;;;7388915;19;20690;-71
2023/07/23 00:40:11;;;;;;;6.15;3.33;;;;;;;;;;7369421;19;20010;-72
2023/07/23 00:42:36;;;;;;;7.78;3.13;;;;;;;;;;7370747;19;20011;-72
2023/07/23 00:45:02;;;;;;;9.43;3.28;;;;;;;;;;7371701;19;20018;-72
2023/07/23 00:47:27;;;;;;;7.60;3.22;;;;;;;;;;7369323;19;20006;-73
2023/07/23 00:49:53;;;;;;;5.43;3.05;;;;;;;;;;7391758;19;20346;-72
2023/07/23 00:52:18;;;;;;;5.68;3.35;;;;;;;;;;7368524;19;20010;-72
2023/07/23 00:54:44;;;;;;;9.25;3.13;;;;;;;;;;7369856;19;20036;-72
2023/07/23 00:57:10;;;;;;;8.73;3.15;;;;;;;;;;7367318;19;20029;-72
2023/07/23 00:59:37;;;;;;;7.03;3.03;;;;;;;;;;7368927;19;20118;-72
2023/07/23 01:02:03;;;;;;;5.55;2.90;;;;;;;;;;7367775;19;20011;-71
2023/07/23 01:04:29;;;;;;;6.22;3.33;;;;;;;;;;7390629;19;20021;-71
2023/07/23 01:06:56;;;;;;;7.32;3.03;;;;;;;;;;7367131;19;20014;-70
2023/07/23 01:09:23;;;;;;;6.00;2.83;;;;;;;;;;7369676;19;20007;-72
2023/07/23 01:11:50;;;;;;;6.20;3.20;;;;;;;;;;7367854;19;20452;-71
2023/07/23 01:14:15;;;;;;;8.02;3.20;;;;;;;;;;7367949;19;20537;-72
2023/07/23 01:16:42;;;;;;;5.82;3.40;;;;;;;;;;7389547;19;20015;-72
2023/07/23 01:19:07;;;;;;;7.30;3.30;;;;;;;;;;7367709;19;20520;-71
2023/07/23 01:21:36;;;;;;;10.50;3.00;;;;;;;;;;7365146;19;20015;-71
2023/07/23 01:24:01;;;;;;;6.93;3.22;;;;;;;;;;7368647;19;20118;-72
2023/07/23 01:26:27;;;;;;;9.55;3.28;;;;;;;;;;7370239;19;20056;-72
2023/07/23 01:28:53;;;;;;;5.07;2.88;;;;;;;;;;7388017;19;20014;-72
2023/07/23 01:31:18;;;;;;;5.60;2.83;;;;;;;;;;7367926;19;20015;-72
2023/07/23 01:33:45;;;;;;;5.88;3.15;;;;;;;;;;7368089;19;20006;-71
2023/07/23 01:36:10;;;;;;;7.25;3.20;;;;;;;;;;7366019;19;20035;-72
2023/07/23 01:38:36;;;;;;;7.07;3.20;;;;;;;;;;7365507;19;20014;-72
2023/07/23 01:41:02;;;;;;;6.78;3.22;;;;;;;;;;7367934;19;20074;-72
2023/07/23 01:43:28;;;;;;;8.50;3.30;;;;;;;;;;7389257;19;20010;-71
2023/07/23 01:45:54;;;;;;;6.30;3.58;;;;;;;;;;7365984;19;20009;-72
2023/07/23 01:48:21;;;;;;;6.95;3.25;;;;;;;;;;7367257;19;20763;-73
2023/07/23 01:50:46;;;;;;;7.13;3.13;;;;;;;;;;7366428;19;20015;-72
2023/07/23 01:53:12;;;;;;;7.00;3.17;;;;;;;;;;7366601;19;20048;-72
2023/07/23 01:55:37;;;;;;;6.20;3.20;;;;;;;;;;7389178;19;20014;-70
2023/07/23 01:58:02;;;;;;;7.07;3.30;;;;;;;;;;7362934;19;20488;-72
2023/07/23 02:00:27;;;;;;;9.98;3.38;;;;;;;;;;7366262;19;20010;-72
2023/07/23 02:02:53;;;;;;;6.25;3.15;;;;;;;;;;7367335;19;20031;-72
2023/07/23 02:05:19;;;;;;;11.00;3.60;;;;;;;;;;7365758;19;20015;-72
2023/07/23 02:07:44;;;;;;;7.53;2.92;;;;;;;;;;7388370;19;20022;-72
2023/07/23 02:10:11;;;;;;;8.90;3.30;;;;;;;;;;7366193;19;20362;-72
2023/07/23 02:12:36;;;;;;;6.75;3.30;;;;;;;;;;7366822;19;20088;-72
2023/07/23 02:15:02;;;;;;;6.00;3.25;;;;;;;;;;7366616;19;20425;-74
2023/07/23 02:17:28;;;;;;;7.13;3.75;;;;;;;;;;7366601;19;20018;-72
2023/07/23 02:19:53;;;;;;;6.25;3.13;;;;;;;;;;7389385;19;20074;-72
2023/07/23 02:22:18;;;;;;;8.00;3.72;;;;;;;;;;7366330;19;20066;-73
2023/07/23 02:24:44;;;;;;;6.63;3.40;;;;;;;;;;7363902;19;20061;-72
2023/07/23 02:27:10;;;;;;;8.95;3.65;;;;;;;;;;7366679;19;20041;-72
2023/07/23 02:29:36;;;;;;;4.70;2.80;;;;;;;;;;7367537;19;20022;-72
2023/07/23 02:32:01;;;;;;;7.10;3.35;;;;;;;;;;7368194;19;20006;-72
2023/07/23 02:34:27;;;;;;;7.03;3.28;;;;;;;;;;7388635;19;20399;-72
2023/07/23 02:36:52;;;;;;;6.25;3.08;;;;;;;;;;7366655;19;20022;-71
2023/07/23 02:39:17;;;;;;;6.82;3.63;;;;;;;;;;7364399;19;20019;-72
2023/07/23 02:41:43;;;;;;;7.40;3.40;;;;;;;;;;7366595;19;20014;-72
2023/07/23 02:44:08;;;;;;;9.98;3.47;;;;;;;;;;7366331;19;20027;-72
2023/07/23 02:46:33;;;;;;;9.75;3.13;;;;;;;;;;7386067;19;20081;-72
2023/07/23 02:48:59;;;;;;;8.55;3.50;;;;;;;;;;7368444;19;20006;-73
2023/07/23 02:51:24;;;;;;;5.72;3.20;;;;;;;;;;7368687;19;20022;-72
2023/07/23 02:53:50;;;;;;;7.40;3.33;;;;;;;;;;7367862;19;20049;-73
2023/07/23 02:56:15;;;;;;;8.52;3.40;;;;;;;;;;7367394;19;20004;-72
2023/07/23 02:58:41;;;;;;;6.70;3.53;;;;;;;;;;7390198;19;20022;-70
2023/07/23 03:01:06;;;;;;;6.80;3.10;;;;;;;;;;7372319;19;20006;-71
2023/07/23 03:03:31;;;;;;;6.45;3.40;;;;;;;;;;7373277;19;20067;-71
2023/07/23 03:05:57;;;;;;;7.45;3.80;;;;;;;;;;7373282;19;20038;-72
2023/07/23 03:08:22;;;;;;;6.60;3.40;;;;;;;;;;7370764;19;20018;-71
2023/07/23 03:10:47;;;;;;;6.95;3.70;;;;;;;;;;7385981;19;20718;-72
2023/07/23 03:13:13;;;;;;;5.57;3.28;;;;;;;;;;7364607;19;20017;-72
2023/07/23 03:15:38;;;;;;;6.47;3.10;;;;;;;;;;7363618;19;20006;-71
2023/07/23 03:18:04;;;;;;;8.45;3.55;;;;;;;;;;7364327;19;20413;-72
2023/07/23 03:20:29;;;;;;;6.75;3.40;;;;;;;;;;7361839;19;20014;-72
2023/07/23 03:22:55;;;;;;;7.47;3.60;;;;;;;;;;7375931;19;20030;-72
2023/07/23 03:25:20;;;;;;;6.18;3.17;;;;;;;;;;7374253;19;20632;-71
2023/07/23 03:27:45;;;;;;;6.82;3.15;;;;;;;;;;7362662;19;20107;-72
2023/07/23 03:30:11;;;;;;;8.18;3.83;;;;;;;;;;7364365;19;20050;-72
2023/07/23 03:32:37;;;;;;;6.55;3.40;;;;;;;;;;7364881;19;20086;-71
2023/07/23 03:35:03;;;;;;;8.10;3.67;;;;;;;;;;7362481;19;20404;-72
2023/07/23 03:37:29;;;;;;;9.10;3.55;;;;;;;;;;7384819;19;20078;-71
2023/07/23 03:39:54;;;;;;;6.53;3.42;;;;;;;;;;7364112;19;20018;-71
2023/07/23 03:42:20;;;;;;;7.28;3.42;;;;;;;;;;7364448;19;20010;-73
2023/07/23 03:44:45;;;;;;;5.88;3.40;;;;;;;;;;7364003;19;20010;-72
2023/07/23 03:47:10;;;;;;;7.53;3.45;;;;;;;;;;7364328;19;20014;-71
2023/07/23 03:49:36;;;;;;;9.75;3.47;;;;;;;;;;7384317;19;20035;-72
2023/07/23 03:52:01;;;;;;;7.85;3.47;;;;;;;;;;7359573;19;20449;-72
2023/07/23 03:54:27;;;;;;;6.95;3.63;;;;;;;;;;7364826;19;20031;-72
2023/07/23 03:56:53;;;;;;;10.50;3.40;;;;;;;;;;7370752;19;20022;-71
2023/07/23 03:59:18;;;;;;;7.28;3.10;;;;;;;;;;7372443;19;20018;-72
2023/07/23 04:01:44;;;;;;;6.30;3.55;;;;;;;;;;7394014;19;20476;-72
2023/07/23 04:04:09;;;;;;;9.10;3.67;;;;;;;;;;7372788;19;20007;-72
2023/07/23 04:06:34;;;;;;;9.90;3.55;;;;;;;;;;7371704;19;20031;-71
2023/07/23 04:08:59;;;;;;;6.63;3.28;;;;;;;;;;7372838;19;20025;-70
2023/07/23 04:11:25;;;;;;;10.43;3.63;;;;;;;;;;7370599;19;20771;-72
2023/07/23 04:13:50;;;;;;;6.68;3.55;;;;;;;;;;7393429;19;20014;-72
2023/07/23 04:16:16;;;;;;;9.00;3.55;;;;;;;;;;7369677;19;20011;-71
2023/07/23 04:18:50;;;;;;;7.53;3.85;;;;;;;;;;7370408;19;20022;-71
2023/07/23 04:21:18;;;;;;;6.97;3.17;;;;;;;;;;7370672;19;20496;-72
2023/07/23 04:23:48;;;;;;;6.75;3.53;;;;;;;;;;7372526;19;20372;-71
2023/07/23 04:26:17;;;;;;;10.95;3.50;;;;;;;;;;7371142;19;20042;-72
2023/07/23 04:28:43;;;;;;;7.05;3.65;;;;;;;;;;7390428;19;20485;-72
2023/07/23 04:31:08;;;;;;;5.95;3.25;;;;;;;;;;7370141;19;20139;-72
2023/07/23 04:33:34;;;;;;;6.68;3.50;;;;;;;;;;7368474;19;20025;-72
2023/07/23 04:35:59;;;;;;;6.90;3.78;;;;;;;;;;7369987;19;20014;-71
2023/07/23 04:38:25;;;;;;;8.98;3.50;;;;;;;;;;7369209;19;20011;-71
2023/07/23 04:40:51;;;;;;;9.75;3.83;;;;;;;;;;7394903;19;19998;-71
2023/07/23 04:43:16;;;;;;;7.55;3.80;;;;;;;;;;7373157;19;20038;-71
2023/07/23 04:45:41;;;;;;;9.13;3.53;;;;;;;;;;7370811;19;20014;-73
2023/07/23 04:48:07;;;;;;;8.10;3.53;;;;;;;;;;7371267;19;20023;-72
2023/07/23 04:50:32;;;;;;;5.97;3.58;;;;;;;;;;7370532;19;20580;-72
2023/07/23 04:52:58;;;;;;;8.80;3.83;;;;;;;;;;7372349;19;20014;-73
2023/07/23 04:55:25;;;;;;;10.25;3.22;;;;;;;;;;7391386;19;20669;-71
2023/07/23 04:57:50;;;;;;;10.23;3.72;;;;;;;;;;7368338;19;20038;-71
2023/07/23 05:00:16;;;;;;;8.73;4.03;;;;;;;;;;7367497;19;20680;-72
2023/07/23 05:02:42;;;;;;;9.88;4.70;;;;;;;;;;7369857;19;20014;-71
2023/07/23 05:05:08;;;;;;;16.35;4.18;;;;;;;;;;7370936;19;20020;-71
2023/07/23 05:07:33;;;;;;;10.00;4.20;;;;;;;;;;7386684;19;20477;-70
2023/07/23 05:09:58;;;;;;;9.40;4.28;;;;;;;;;;7372308;19;20603;-71
2023/07/23 05:12:23;;;;;;;8.75;3.70;;;;;;;;;;7369811;19;20039;-71
2023/07/23 05:14:49;;;;;;;7.30;3.72;;;;;;;;;;7370339;19;20006;-72
2023/07/23 05:17:14;;;;;;;8.90;3.70;;;;;;;;;;7367661;19;20012;-72
2023/07/23 05:19:39;;;;;;;8.30;4.05;;;;;;;;;;7391411;19;20369;-71
2023/07/23 05:22:05;;;;;;;11.32;4.38;;;;;;;;;;7369930;19;20489;-71
2023/07/23 05:24:30;;;;;;;7.45;3.70;;;;;;;;;;7368940;19;20014;-71
2023/07/23 05:26:59;;;;;;;11.18;4.15;;;;;;;;;;7367908;19;20021;-72
2023/07/23 05:29:24;;;;;;;11.38;4.10;;;;;;;;;;7369549;19;20018;-71
2023/07/23 05:31:50;;;;;;;7.25;4.00;;;;;;;;;;7388175;19;20027;-72
2023/07/23 05:34:16;;;;;;;7.47;3.60;;;;;;;;;;7368192;19;20373;-71
2023/07/23 05:36:41;;;;;;;8.13;3.72;;;;;;;;;;7366198;19;20018;-71
2023/07/23 05:39:08;;;;;;;12.55;4.72;;;;;;;;;;7370097;19;20437;-71
2023/07/23 05:41:33;;;;;;;11.07;4.35;;;;;;;;;;7368539;19;20008;-71
2023/07/23 05:43:58;;;;;;;9.73;4.20;;;;;;;;;;7371019;19;20021;-72
2023/07/23 05:46:23;;;;;;;6.50;4.00;;;;;;;;;;7388271;19;20360;-73
2023/07/23 05:48:49;;;;;;;8.65;4.75;;;;;;;;;;7369782;19;20026;-71
2023/07/23 05:51:14;;;;;;;9.27;4.13;;;;;;;;;;7368775;19;20022;-73
2023/07/23 05:53:39;;;;;;;8.70;3.70;;;;;;;;;;7367599;19;20014;-72
2023/07/23 05:56:05;;;;;;;7.18;4.00;;;;;;;;;;7368616;19;20038;-72
2023/07/23 05:58:31;;;;;;;8.35;4.07;;;;;;;;;;7389514;19;20007;-72
2023/07/23 06:00:56;;;;;;;9.93;4.10;;;;;;;;;;7368500;19;20006;-72
2023/07/23 06:03:22;;;;;;;7.35;3.90;;;;;;;;;;7370721;19;20516;-73
2023/07/23 06:05:48;;;;;;;8.23;3.88;;;;;;;;;;7366946;19;20081;-72
2023/07/23 06:08:13;;;;;;;7.95;3.80;;;;;;;;;;7369753;19;20477;-71
2023/07/23 06:10:40;;;;;;;6.03;3.42;;;;;;;;;;7387839;19;20010;-72
2023/07/23 06:13:08;;;;;;;7.38;3.75;;;;;;;;;;7365863;19;20003;-71
2023/07/23 06:15:34;;;;;;;8.68;4.03;;;;;;;;;;7371024;19;20050;-71
2023/07/23 06:17:59;;;;;;;6.88;3.40;;;;;;;;;;7368880;19;20079;-72
2023/07/23 06:20:25;;;;;;;11.02;3.50;;;;;;;;;;7366915;19;20018;-71
2023/07/23 06:22:50;;;;;;;5.13;3.30;;;;;;;;;;7390508;19;20905;-73
2023/07/23 06:25:16;;;;;;;6.80;3.35;;;;;;;;;;7368823;19;20006;-72
2023/07/23 06:27:41;;;;;;;4.68;2.83;;;;;;;;;;7367172;19;20025;-71
2023/07/23 06:30:07;;;;;;;8.45;2.70;;;;;;;;;;7367824;19;20006;-72
2023/07/23 06:32:32;;;;;;;7.50;2.47;;;;;;;;;;7365820;19;20014;-73
2023/07/23 06:34:58;;;;;;;5.55;2.75;;;;;;;;;;7364151;19;20082;-73
2023/07/23 06:37:23;;;;;;;5.22;2.33;;;;;;;;;;7387417;19;20014;-73
2023/07/23 06:39:48;;;;;;;4.90;2.55;;;;;;;;;;7366632;19;20570;-72
2023/07/23 06:42:13;;;;;;;5.22;2.92;;;;;;;;;;7366730;19;20003;-73
2023/07/23 06:44:40;;;;;;;5.75;2.50;;;;;;;;;;7360173;19;20497;-72
2023/07/23 06:47:06;;;;;;;5.63;3.00;;;;;;;;;;7364860;19;20014;-71
2023/07/23 06:49:34;;;;;;;5.72;2.70;;;;;;;;;;7385901;19;20349;-72
2023/07/23 06:51:59;;;;;;;6.55;2.50;;;;;;;;;;7363705;19;20085;-73
2023/07/23 06:54:25;;;;;;;5.75;3.00;;;;;;;;;;7364044;19;20027;-66
2023/07/23 06:56:54;;;;;;;4.00;2.30;;;;;;;;;;7365691;19;20025;-66
2023/07/23 06:59:20;;;;;;;6.88;2.47;;;;;;;;;;7366569;19;20089;-61
2023/07/23 07:01:45;;;;;;;7.25;2.70;;;;;;;;;;7384496;19;20003;-59
2023/07/23 07:04:10;;;;;;;8.18;2.83;;;;;;;;;;7352205;19;20488;-69
2023/07/23 07:06:36;;;;;;;5.63;2.50;;;;;;;;;;7365195;19;20500;-68
2023/07/23 07:09:01;;;;;;;5.38;2.70;;;;;;;;;;7366717;19;20389;-73
2023/07/23 07:11:26;;;;;;;6.40;2.60;;;;;;;;;;7364459;19;20026;-70
2023/07/23 07:13:52;;;;;;;5.30;2.60;;;;;;;;;;7385194;19;20009;-69
2023/07/23 07:16:17;;;;;;;5.15;2.53;;;;;;;;;;7366856;19;20011;-70
2023/07/23 07:18:42;;;;;;;4.65;2.53;;;;;;;;;;7365507;19;20014;-70
2023/07/23 07:21:08;;;;;;;4.20;2.38;;;;;;;;;;7364384;19;20010;-72
2023/07/23 07:23:34;;;;;;;3.67;2.25;;;;;;;;;;7362790;19;20673;-70
2023/07/23 07:26:00;;;;;;;4.18;2.28;;;;;;;;;;7366390;19;20635;-69
2023/07/23 07:28:27;;;;;;;3.10;1.98;;;;;;;;;;7377847;19;20003;-69
2023/07/23 07:30:59;;;;;;;4.63;2.17;;;;;;;;;;7368438;19;20676;-69
2023/07/23 07:33:25;;;;;;;5.30;2.15;;;;;;;;;;7372388;19;19999;-69
2023/07/23 07:35:57;;;;;;;3.53;2.00;;;;;;;;;;7369971;19;20014;-69
2023/07/23 07:38:23;;;;;;;4.18;2.20;;;;;;;;;;7366070;19;20010;-69
2023/07/23 07:40:50;;;;;;;4.97;1.98;;;;;;;;;;7384278;19;19998;-69
2023/07/23 07:43:15;;;;;;;5.53;2.38;;;;;;;;;;7368463;19;20014;-70
2023/07/23 07:45:40;;;;;;;5.05;2.40;;;;;;;;;;7367344;19;20428;-69
2023/07/23 07:48:06;;;;;;;3.63;2.10;;;;;;;;;;7360801;19;20014;-69
2023/07/23 07:50:31;;;;;;;3.63;2.00;;;;;;;;;;7357849;19;20010;-69
2023/07/23 07:52:56;;;;;;;4.20;2.20;;;;;;;;;;7368945;19;20018;-68
2023/07/23 07:55:22;;;;;;;5.82;2.15;;;;;;;;;;7395627;19;20002;-69
2023/07/23 07:57:48;;;;;;;4.15;2.13;;;;;;;;;;7369999;19;20039;-68
2023/07/23 08:00:14;;;;;;;4.40;2.78;;;;;;;;;;7370639;19;20101;-69
2023/07/23 08:02:39;;;;;;;3.33;2.10;;;;;;;;;;7373544;19;20548;-69
2023/07/23 08:05:06;;;;;;;6.75;2.30;;;;;;;;;;7374369;19;20420;-68
2023/07/23 08:07:32;;;;;;;3.47;2.10;;;;;;;;;;7390528;19;20022;-70
2023/07/23 08:09:59;;;;;;;4.40;2.00;;;;;;;;;;7370908;19;20015;-69
2023/07/23 08:12:26;;;;;;;5.38;2.10;;;;;;;;;;7369556;19;20010;-69
2023/07/23 08:14:53;;;;;;;6.32;2.33;;;;;;;;;;7372835;19;20006;-70
2023/07/23 08:17:20;;;;;;;5.25;2.38;;;;;;;;;;7370843;19;20003;-69
2023/07/23 08:19:45;;;;;;;4.30;2.00;;;;;;;;;;7394092;19;20007;-70
2023/07/23 08:22:11;;;;;;;4.85;2.00;;;;;;;;;;7371795;19;20003;-69
2023/07/23 08:24:37;;;;;;;6.50;2.78;;;;;;;;;;7370683;19;20391;-69
2023/07/23 08:27:03;;;;;;;5.65;2.00;;;;;;;;;;7371995;19;20011;-69
2023/07/23 08:29:33;;;;;;;5.72;2.30;;;;;;;;;;7372896;19;20016;-68
2023/07/23 08:31:59;;;;;;;5.63;2.10;;;;;;;;;;7371322;19;20389;-69
2023/07/23 08:34:26;;;;;;;3.72;2.03;;;;;;;;;;7393383;19;20010;-69
2023/07/23 08:36:51;;;;;;;4.90;2.30;;;;;;;;;;7369730;19;20003;-69
2023/07/23 08:39:17;;;;;;;3.72;1.95;;;;;;;;;;7369809;19;20090;-70
2023/07/23 08:42:04;;;;;;;7.07;1.90;;;;;;;;;;7371029;19;20025;-68
2023/07/23 08:45:01;;;;;;;4.38;1.92;;;;;;;;;;7370971;19;20014;-68
2023/07/23 08:47:27;;;;;;;7.43;2.00;;;;;;;;;;7371276;19;20015;-70
2023/07/23 08:49:53;;;;;;;4.07;2.20;;;;;;;;;;7392552;19;20039;-69
2023/07/23 08:52:20;;;;;;;4.18;1.98;;;;;;;;;;7369885;19;20002;-69
2023/07/23 08:54:46;;;;;;;3.45;1.90;;;;;;;;;;7370860;19;20555;-70
2023/07/23 08:57:11;;;;;;;4.18;2.00;;;;;;;;;;7370016;19;20480;-68
2023/07/23 08:59:39;;;;;;;2.50;1.80;;;;;;;;;;7370626;19;20018;-69
2023/07/23 09:02:07;;;;;;;7.90;2.22;;;;;;;;;;7369883;19;20401;-68
2023/07/23 09:04:34;;;;;;;4.35;2.10;;;;;;;;;;7386189;19;20010;-70
2023/07/23 09:07:00;;;;;;;3.97;2.08;;;;;;;;;;7368886;19;20496;-70
2023/07/23 09:09:26;;;;;;;3.58;2.05;;;;;;;;;;7370384;19;20011;-68
2023/07/23 09:11:51;;;;;;;4.63;2.10;;;;;;;;;;7369930;19;20003;-67
2023/07/23 09:14:17;;;;;;;2.65;1.73;;;;;;;;;;7369615;19;20460;-69
2023/07/23 09:16:47;;;;;;;3.28;1.90;;;;;;;;;;7391966;19;20017;-68
2023/07/23 09:19:13;;;;;;;;;;;;;;;;;;7369969;19;20011;-69
2023/07/23 09:21:42;;;;;;;3.80;1.92;;;;;;;;;;7367907;19;19947;-69
2023/07/23 09:24:12;;;;;;;2.53;1.85;;;;;;;;;;7370732;19;20002;-69
2023/07/23 09:26:38;;;;;;;4.20;1.90;;;;;;;;;;7368985;19;20013;-68
2023/07/23 09:29:08;;;;;;;4.97;2.20;;;;;;;;;;7370595;19;20006;-68
2023/07/23 09:31:34;;;;;;;4.97;2.03;;;;;;;;;;7391476;19;20010;-69
2023/07/23 09:34:01;;;;;;;3.55;2.00;;;;;;;;;;7368507;19;20006;-68
2023/07/23 09:36:28;;;;;;;3.67;1.90;;;;;;;;;;7367681;19;20003;-68
2023/07/23 09:38:56;;;;;;;3.15;1.98;;;;;;;;;;7369089;19;20006;-69
2023/07/23 09:41:22;;;;;;;5.25;1.90;;;;;;;;;;7369500;19;20031;-68
2023/07/23 09:43:47;;;;;;;2.97;1.90;;;;;;;;;;7392386;19;20360;-69
2023/07/23 09:46:13;;;;;;;2.63;1.77;;;;;;;;;;7368950;19;20006;-67
2023/07/23 09:48:45;;;;;;;3.60;1.85;;;;;;;;;;7367049;19;20038;-67
2023/07/23 09:51:12;;;;;;;3.28;1.73;;;;;;;;;;7367127;19;20017;-68
2023/07/23 09:53:41;;;;;;;3.50;1.70;;;;;;;;;;7364995;19;20019;-68
2023/07/23 09:56:08;;;;;;;3.28;1.73;;;;;;;;;;7368969;19;19998;-68
2023/07/23 09:58:36;;;;;;;3.95;2.00;;;;;;;;;;7387936;19;20374;-68
2023/07/23 10:01:02;;;;;;;5.43;2.00;;;;;;;;;;7365809;19;20044;-68
2023/07/23 10:03:29;;;;;;;3.60;1.55;;;;;;;;;;7368671;19;20726;-68
2023/07/23 10:05:55;;;;;;;6.35;1.70;;;;;;;;;;7366313;19;20010;-67
2023/07/23 10:08:21;;;;;;;3.28;1.60;;;;;;;;;;7365932;19;20015;-67
2023/07/23 10:10:47;;;;;;;4.43;1.88;;;;;;;;;;7389097;19;20357;-67
2023/07/23 10:13:12;;;;;;;4.28;1.80;;;;;;;;;;7369805;19;20010;-67
2023/07/23 10:15:39;;;;;;;3.63;1.73;;;;;;;;;;7369757;19;20062;-67
2023/07/23 10:18:06;;;;;;;2.50;1.58;;;;;;;;;;7367017;19;20027;-67
2023/07/23 10:20:32;;;;;;;3.75;1.90;;;;;;;;;;7367110;19;20040;-67
2023/07/23 10:22:57;;;;;;;3.08;1.95;;;;;;;;;;7372681;19;20003;-67
2023/07/23 10:25:32;;;;;;;3.85;1.85;;;;;;;;;;7393093;19;20094;-67
2023/07/23 10:27:58;;;;;;;3.15;1.92;;;;;;;;;;7366652;19;20476;-67
2023/07/23 10:30:26;;;;;;;3.60;1.90;;;;;;;;;;7363975;19;20335;-67
2023/07/23 10:33:09;;;;;;;3.65;1.60;;;;;;;;;;7366655;19;20002;-68
2023/07/23 10:35:53;;;;;;;3.45;1.80;;;;;;;;;;7364409;19;20768;-68
2023/07/23 10:38:22;;;;;;;3.28;1.95;;;;;;;;;;7364800;19;20015;-68
2023/07/23 10:40:47;;;;;;;3.53;1.80;;;;;;;;;;7389771;19;20369;-68
2023/07/23 10:43:14;;;;;;;4.78;1.77;;;;;;;;;;7369195;19;20044;-66
2023/07/23 10:45:45;;;;;;;3.22;1.80;;;;;;;;;;7374954;19;20009;-68
2023/07/23 10:48:16;;;;;;;3.85;1.77;;;;;;;;;;7367944;19;20007;-66
2023/07/23 10:50:58;;;;;;;4.88;1.60;;;;;;;;;;7368072;19;20674;-66
2023/07/23 10:53:25;;;;;;;2.47;1.70;;;;;;;;;;7370812;19;20014;-67
2023/07/23 10:55:51;;;;;;;3.05;1.77;;;;;;;;;;7391396;19;20023;-66
2023/07/23 10:58:21;;;;;;;4.03;1.70;;;;;;;;;;7366726;19;20510;-70
2023/07/23 11:00:54;;;;;;;3.65;1.75;;;;;;;;;;7366401;19;20523;-72
2023/07/23 11:03:21;;;;;;;2.75;1.63;;;;;;;;;;7367177;19;20020;-71
2023/07/23 11:05:47;;;;;;;4.63;1.80;;;;;;;;;;7370544;19;20048;-71
2023/07/23 11:08:15;;;;;;;3.20;1.40;;;;;;;;;;7372862;19;20010;-71
2023/07/23 11:11:01;;;;;;;3.60;1.90;;;;;;;;;;7395388;19;20037;-71
2023/07/23 11:13:27;;;;;;;2.72;1.63;;;;;;;;;;7373765;19;20007;-72
2023/07/23 11:15:54;;;;;;;3.90;2.00;;;;;;;;;;7374048;19;20392;-72
2023/07/23 11:18:20;;;;;;;3.72;1.70;;;;;;;;;;7372652;19;20392;-65
2023/07/23 11:20:54;;;;;;;4.30;1.70;;;;;;;;;;7373443;19;20010;-65
2023/07/23 11:23:22;;;;;;;4.30;1.80;;;;;;;;;;7374516;19;20023;-64
2023/07/23 11:25:48;;;;;;;3.30;1.80;;;;;;;;;;7393549;19;20007;-62
2023/07/23 11:28:17;;;;;;;3.03;1.73;;;;;;;;;;7365774;19;20567;-63
2023/07/23 11:30:42;;;;;;;3.85;1.77;;;;;;;;;;7368560;19;20032;-63
2023/07/23 11:33:08;;;;;;;3.47;1.80;;;;;;;;;;7371888;19;20014;-63
2023/07/23 11:35:34;;;;;;;2.63;1.67;;;;;;;;;;7371367;19;20006;-64
2023/07/23 11:38:03;;;;;;;3.97;1.90;;;;;;;;;;7371572;19;20428;-64
2023/07/23 11:40:29;;;;;;;2.95;1.80;;;;;;;;;;7393358;19;20003;-64
2023/07/23 11:42:55;;;;;;;2.75;1.73;;;;;;;;;;7373551;19;20072;-64
2023/07/23 11:45:20;;;;;;;3.85;2.03;;;;;;;;;;7372863;19;20002;-64
2023/07/23 11:47:53;;;;;;;2.90;1.75;;;;;;;;;;7386772;19;20086;-65
2023/07/23 11:50:20;;;;;;;4.22;1.70;;;;;;;;;;7370657;19;20024;-65
2023/07/23 11:52:47;;;;;;;6.07;1.88;;;;;;;;;;7395038;19;20338;-65
2023/07/23 11:55:36;;;;;;;8.15;1.95;;;;;;;;;;7372751;19;20093;-65
2023/07/23 11:58:02;;;;;;;3.53;2.08;;;;;;;;;;7370423;19;20456;-65
2023/07/23 12:00:31;;;;;;;3.53;1.80;;;;;;;;;;7370920;19;20054;-64
2023/07/23 12:02:58;;;;;;;7.95;2.72;;;;;;;;;;7373006;19;20029;-65
2023/07/23 12:05:23;;;;;;;6.05;2.50;;;;;;;;;;7372285;19;20011;-65
2023/07/23 12:07:52;;;;;;;5.43;2.40;;;;;;;;;;7391215;19;20017;-61
2023/07/23 12:10:17;;;;;;;5.90;2.25;;;;;;;;;;7368536;19;20023;-62
2023/07/23 12:12:46;;;;;;;7.47;3.22;;;;;;;;;;7370881;19;20006;-61
2023/07/23 12:15:16;;;;;;;6.50;2.10;;;;;;;;;;7370356;19;20010;-61
2023/07/23 12:17:42;;;;;;;5.07;2.13;;;;;;;;;;7370904;19;20008;-61
2023/07/23 12:20:16;;;;;;;4.47;1.92;;;;;;;;;;7371179;19;20357;-62
2023/07/23 12:22:52;;;;;;;5.05;2.10;;;;;;;;;;7390802;19;20019;-61
2023/07/23 12:25:17;;;;;;;7.63;2.30;;;;;;;;;;7367783;19;20010;-60
2023/07/23 12:27:42;;;;;;;5.30;1.92;;;;;;;;;;7366653;19;20021;-60
2023/07/23 12:30:08;;;;;;;4.45;2.63;;;;;;;;;;7368356;19;20014;-60
2023/07/23 12:32:36;;;;;;;7.82;2.00;;;;;;;;;;7367679;19;20030;-61
2023/07/23 12:35:02;;;;;;;4.18;1.88;;;;;;;;;;7368632;19;20017;-60
2023/07/23 12:37:27;;;;;;;8.40;2.10;;;;;;;;;;7391053;19;20062;-60
2023/07/23 12:39:55;;;;;;;3.10;1.88;;;;;;;;;;7368744;19;20011;-61
2023/07/23 12:42:21;;;;;;;3.38;1.98;;;;;;;;;;7362329;19;20008;-61
2023/07/23 12:44:47;;;;;;;3.28;1.95;;;;;;;;;;7369819;19;20433;-60
2023/07/23 12:47:12;;;;;;;4.43;2.00;;;;;;;;;;7369414;19;20003;-60
2023/07/23 12:49:38;;;;;;;8.88;2.10;;;;;;;;;;7390654;19;20019;-62
2023/07/23 12:52:04;;;;;;;4.63;2.13;;;;;;;;;;7365923;19;20015;-62
2023/07/23 12:54:30;;;;;;;3.95;1.90;;;;;;;;;;7368919;19;19998;-62
2023/07/23 12:56:55;;;;;;;4.97;2.00;;;;;;;;;;7368334;19;20544;-62
2023/07/23 12:59:21;;;;;;;4.05;2.30;;;;;;;;;;7370484;19;20009;-62
2023/07/23 13:01:47;;;;;;;4.72;2.28;;;;;;;;;;7390016;19;19999;-62
2023/07/23 13:04:12;;;;;;;3.33;1.90;;;;;;;;;;7369793;19;20443;-62
2023/07/23 13:06:37;;;;;;;3.67;2.00;;;;;;;;;;7368318;19;20088;-61
2023/07/23 13:09:03;;;;;;;3.65;1.88;;;;;;;;;;7369835;19;20019;-61
2023/07/23 13:11:28;;;;;;;11.68;1.90;;;;;;;;;;7367991;19;20716;-61
2023/07/23 13:13:53;;;;;;;3.92;1.90;;;;;;;;;;7390734;19;19998;-61
2023/07/23 13:16:19;;;;;;;5.18;2.10;;;;;;;;;;7368634;19;20364;-61
2023/07/23 13:18:44;;;;;;;4.60;1.75;;;;;;;;;;7368442;19;20006;-61
2023/07/23 13:21:09;;;;;;;6.50;2.07;;;;;;;;;;7368402;19;20026;-63
2023/07/23 13:23:35;;;;;;;4.57;2.33;;;;;;;;;;7370559;19;20827;-63
2023/07/23 13:26:00;;;;;;;4.43;2.13;;;;;;;;;;7369870;19;19998;-63
2023/07/23 13:28:25;;;;;;;3.63;2.25;;;;;;;;;;7386735;19;20063;-63
2023/07/23 13:30:51;;;;;;;6.00;2.20;;;;;;;;;;7367151;19;20010;-63
2023/07/23 13:33:17;;;;;;;4.70;2.55;;;;;;;;;;7368563;19;20014;-64
2023/07/23 13:35:43;;;;;;;6.22;2.30;;;;;;;;;;7369202;19;20043;-65
2023/07/23 13:38:09;;;;;;;7.05;2.20;;;;;;;;;;7370276;19;20014;-65
2023/07/23 13:40:35;;;;;;;6.07;3.40;;;;;;;;;;7391318;19;20007;-64
2023/07/23 13:43:01;;;;;;;6.18;2.55;;;;;;;;;;7370254;19;20011;-64
2023/07/23 13:45:26;;;;;;;4.30;2.30;;;;;;;;;;7371536;19;20305;-65
2023/07/23 13:47:51;;;;;;;4.25;2.38;;;;;;;;;;7366797;19;20010;-63
2023/07/23 13:50:17;;;;;;;3.95;2.20;;;;;;;;;;7367536;19;20037;-63
2023/07/23 13:52:42;;;;;;;10.63;2.30;;;;;;;;;;7390083;19;20014;-63
2023/07/23 13:55:08;;;;;;;6.82;2.20;;;;;;;;;;7368367;19;20052;-63
2023/07/23 13:57:33;;;;;;;3.78;2.20;;;;;;;;;;7366342;19;20014;-63
2023/07/23 14:00:01;;;;;;;8.27;4.45;;;;;;;;;;7370159;19;20009;-64
2023/07/23 14:02:26;;;;;;;5.75;2.40;;;;;;;;;;7372432;19;20006;-64
2023/07/23 14:04:52;;;;;;;4.10;2.38;;;;;;;;;;7390364;19;20480;-64
2023/07/23 14:07:17;;;;;;;4.07;2.05;;;;;;;;;;7368720;19;20022;-63
2023/07/23 14:09:42;;;;;;;5.03;2.30;;;;;;;;;;7368504;19;20019;-64
2023/07/23 14:12:08;;;;;;;5.35;2.05;;;;;;;;;;7368791;19;20014;-64
2023/07/23 14:14:33;;;;;;;6.13;1.98;;;;;;;;;;7366624;19;20026;-63
2023/07/23 14:16:58;;;;;;;3.50;1.90;;;;;;;;;;7363831;19;20037;-63
2023/07/23 14:19:24;;;;;;;4.28;2.20;;;;;;;;;;7386795;19;20028;-64
2023/07/23 14:21:49;;;;;;;4.80;2.03;;;;;;;;;;7363471;19;20002;-64
2023/07/23 14:24:18;;;;;;;5.20;2.20;;;;;;;;;;7363510;19;20021;-64
2023/07/23 14:26:44;;;;;;;7.35;1.98;;;;;;;;;;7365376;19;20014;-65
2023/07/23 14:29:09;;;;;;;6.32;2.03;;;;;;;;;;7367829;19;20457;-64
2023/07/23 14:31:35;;;;;;;4.32;2.65;;;;;;;;;;7387877;19;19990;-65
2023/07/23 14:34:00;;;;;;;8.43;2.22;;;;;;;;;;7367465;19;20007;-62
2023/07/23 14:36:26;;;;;;;4.65;2.00;;;;;;;;;;7367690;19;20015;-63
2023/07/23 14:38:51;;;;;;;12.32;2.00;;;;;;;;;;7367588;19;20014;-63